Main page
Satellite images Climate Cyclones Lightning AirportsFAQ Languages Contact Newsletter About
Weather : Europe Africa North America South America Asia Australia-Oceania Others

1220, Guangzhou, Guangzhou Baiyun International Airport

59287

latitude: , longitude: China, elevation: 23-10N m


METAR: ZGGG 221030Z 01009MPS CAVOK 16/09 Q1019 NOSIG